Time;durP1;ratioP1;P1;durP2;ratioP2;P2;SDS_P1;SDS_P2;PMS_P1;PMS_P2;Temp;Humidity;BMP_temperature;BMP_pressure;BME280_temperature;BME280_humidity;BME280_pressure;Samples;Min_cycle;Max_cycle;Signal;HPM_P1;HPM_P2
2023/08/21 00:01:16;;;;;;;8.43;3.00;;;;;;;22.20;68.44;102126.00;5112074;28;20106;-66
2023/08/21 00:03:42;;;;;;;8.80;3.13;;;;;;;;;;5111737;28;20027;-65
2023/08/21 00:06:07;;;;;;;8.85;3.50;;;;;;;;;;5107262;28;20014;-66
2023/08/21 00:08:36;;;;;;;5.75;3.25;;;;;;;22.23;67.88;102137.41;5091352;28;20169;-66
2023/08/21 00:11:01;;;;;;;7.63;3.20;;;;;;;22.22;67.41;102135.72;5109351;28;20056;-65
2023/08/21 00:13:26;;;;;;;10.63;3.20;;;;;;;22.19;67.60;102127.88;5110403;28;20066;-65
2023/08/21 00:15:52;;;;;;;8.98;3.28;;;;;;;22.12;67.44;102117.69;5096590;28;20167;-66
2023/08/21 00:18:20;;;;;;;8.35;3.00;;;;;;;22.08;68.57;102122.53;5092067;28;20035;-65
2023/08/21 00:20:45;;;;;;;6.68;3.10;;;;;;;21.91;68.73;102123.22;5113874;28;20115;-65
2023/08/21 00:23:11;;;;;;;6.10;2.95;;;;;;;21.89;68.52;102117.13;5094542;28;20099;-65
2023/08/21 00:25:36;;;;;;;7.38;3.72;;;;;;;21.95;68.53;102119.25;5091058;28;20107;-65
2023/08/21 00:28:01;;;;;;;8.50;3.33;;;;;;;21.72;69.17;102107.81;5091820;28;20356;-65
2023/08/21 00:30:27;;;;;;;8.73;3.33;;;;;;;21.91;68.75;102115.09;5091320;28;20020;-65
2023/08/21 00:32:52;;;;;;;5.88;3.10;;;;;;;21.87;68.81;102124.50;5091728;28;20471;-65
2023/08/21 00:35:21;;;;;;;7.40;3.05;;;;;;;21.71;69.36;102111.53;5091010;28;20031;-65
2023/08/21 00:37:46;;;;;;;9.52;3.72;;;;;;;21.73;69.14;102113.06;5112463;28;20385;-65
2023/08/21 00:40:12;;;;;;;10.68;3.10;;;;;;;21.59;69.96;102118.00;5116805;27;20023;-65
2023/08/21 00:42:38;;;;;;;8.00;3.65;;;;;;;21.65;69.45;102112.94;5115395;28;20055;-65
2023/08/21 00:45:04;;;;;;;10.70;3.70;;;;;;;21.60;70.00;102119.75;5115052;28;20044;-65
2023/08/21 00:47:29;;;;;;;9.73;3.72;;;;;;;21.60;70.20;102115.19;5115482;27;20077;-65
2023/08/21 00:49:55;;;;;;;9.48;3.50;;;;;;;21.46;70.44;102124.53;5095612;28;20107;-66
2023/08/21 00:52:21;;;;;;;10.32;3.47;;;;;;;21.57;70.39;102117.31;5115313;28;20447;-65
2023/08/21 00:54:46;;;;;;;8.13;3.33;;;;;;;21.51;70.40;102122.28;5114484;28;20095;-66
2023/08/21 00:57:12;;;;;;;10.43;3.58;;;;;;;21.48;70.81;102127.13;5112205;28;20028;-66
2023/08/21 00:59:38;;;;;;;8.45;3.60;;;;;;;21.53;71.15;102128.41;5114693;28;20055;-65
2023/08/21 01:02:06;;;;;;;6.93;3.03;;;;;;;21.57;70.85;102141.69;5114713;28;20432;-65
2023/08/21 01:04:31;;;;;;;8.93;3.60;;;;;;;21.44;71.26;102145.50;5114707;28;20035;-65
2023/08/21 01:06:57;;;;;;;11.50;3.72;;;;;;;21.61;71.16;102143.97;5102528;27;20024;-65
2023/08/21 01:09:58;;;;;;;7.63;3.20;;;;;;;21.51;71.68;102130.41;5103967;27;20027;-65
2023/08/21 01:12:50;;;;;;;7.30;3.25;;;;;;;21.58;70.78;102119.03;5103440;28;20143;-65
2023/08/21 01:15:16;;;;;;;10.52;3.40;;;;;;;21.29;71.72;102120.56;5113827;28;20031;-65
2023/08/21 01:17:45;;;;;;;6.82;3.67;;;;;;;21.33;72.15;102113.06;5107919;27;20028;-65
2023/08/21 01:20:11;;;;;;;8.68;3.58;;;;;;;21.28;71.59;102097.22;5115939;27;20102;-65
2023/08/21 01:22:39;;;;;;;9.50;4.30;;;;;;;21.21;71.73;102089.78;5094398;28;20020;-65
2023/08/21 01:25:09;;;;;;;9.63;3.72;;;;;;;21.18;72.80;102092.75;5112063;28;20118;-65
2023/08/21 01:27:35;;;;;;;7.85;3.67;;;;;;;21.23;71.78;102093.19;5110615;27;20030;-65
2023/08/21 01:30:06;;;;;;;9.18;3.90;;;;;;;21.18;72.03;102096.34;5118878;27;20074;-65
2023/08/21 01:32:42;;;;;;;10.82;4.50;;;;;;;21.13;72.09;102101.28;5117659;27;20076;-65
2023/08/21 01:35:10;;;;;;;8.30;3.85;;;;;;;21.07;72.48;102101.81;5112433;28;20454;-65
2023/08/21 01:37:36;;;;;;;8.95;4.15;;;;;;;21.04;72.67;102099.41;5114258;28;20428;-65
2023/08/21 01:40:02;;;;;;;12.32;4.47;;;;;;;21.03;72.68;102094.94;5111322;28;20076;-65
2023/08/21 01:42:27;;;;;;;9.02;3.90;;;;;;;21.01;72.69;102092.41;5114320;28;20034;-66
2023/08/21 01:44:53;;;;;;;8.00;3.63;;;;;;;20.83;73.51;102097.56;5117348;27;20027;-65
2023/08/21 01:47:18;;;;;;;10.50;3.53;;;;;;;20.88;73.64;102102.56;5114209;27;20478;-66
2023/08/21 01:49:43;;;;;;;8.13;4.35;;;;;;;20.67;74.33;102107.13;5113672;28;20516;-65
2023/08/21 01:52:09;;;;;;;10.20;4.28;;;;;;;20.70;73.90;102106.88;5113945;28;20028;-65
2023/08/21 01:54:35;;;;;;;7.55;3.53;;;;;;;20.81;73.83;102112.22;5113636;27;20499;-65
2023/08/21 01:57:01;;;;;;;7.75;3.85;;;;;;;20.53;74.59;102116.41;5110647;27;20555;-65
2023/08/21 01:59:26;;;;;;;6.38;3.38;;;;;;;20.62;74.35;102112.94;5117452;27;20055;-65
2023/08/21 02:01:52;;;;;;;6.55;3.35;;;;;;;20.63;74.24;102115.50;5112639;28;20023;-65
2023/08/21 02:04:17;;;;;;;13.05;4.15;;;;;;;20.66;74.54;102118.94;5113590;28;20029;-65
2023/08/21 02:06:44;;;;;;;12.23;3.80;;;;;;;20.50;75.33;102119.34;5111219;28;20027;-65
2023/08/21 02:09:09;;;;;;;6.75;3.80;;;;;;;20.57;74.85;102113.31;5125036;27;20038;-65
2023/08/21 02:11:35;;;;;;;8.13;3.53;;;;;;;20.65;74.55;102120.78;5118516;27;20106;-65
2023/08/21 02:14:00;;;;;;;12.90;4.15;;;;;;;20.50;75.58;102122.03;5104015;28;20067;-66
2023/08/21 02:16:26;;;;;;;9.52;4.05;;;;;;;20.59;75.57;102119.47;5097192;28;20088;-65
2023/08/21 02:18:51;;;;;;;11.35;4.57;;;;;;;20.27;76.24;102114.06;5097423;28;20027;-65
2023/08/21 02:21:16;;;;;;;11.13;4.38;;;;;;;20.43;75.54;102119.00;5092990;28;20379;-65
2023/08/21 02:23:42;;;;;;;10.48;3.75;;;;;;;20.41;75.62;102119.16;5092285;28;20059;-65
2023/08/21 02:26:07;;;;;;;8.25;3.90;;;;;;;20.44;75.33;102118.00;5093131;28;20012;-65
2023/08/21 02:28:33;;;;;;;11.10;3.80;;;;;;;20.36;76.39;102115.13;5093796;28;20052;-66
2023/08/21 02:30:58;;;;;;;8.40;4.00;;;;;;;20.37;75.99;102116.84;5107915;27;20023;-65
2023/08/21 02:33:23;;;;;;;9.93;3.53;;;;;;;20.36;76.41;102113.28;5113023;28;20055;-65
2023/08/21 02:35:51;;;;;;;8.88;4.05;;;;;;;20.31;76.83;102112.81;5112008;27;20028;-66
2023/08/21 02:38:17;;;;;;;7.90;4.30;;;;;;;20.23;76.75;102101.78;5109463;28;20035;-65
2023/08/21 02:40:42;;;;;;;6.10;3.70;;;;;;;20.16;76.89;102103.28;5092333;28;20024;-65
2023/08/21 02:43:07;;;;;;;10.90;3.95;;;;;;;20.18;76.99;102104.03;5110877;27;20462;-65
2023/08/21 02:45:35;;;;;;;10.52;3.85;;;;;;;20.19;77.34;102108.44;5112871;28;20027;-65
2023/08/21 02:48:03;;;;;;;9.07;4.03;;;;;;;20.17;76.88;102113.94;5105111;28;20038;-65
2023/08/21 02:50:28;;;;;;;10.25;3.90;;;;;;;20.10;77.35;102111.91;5094327;28;20123;-65
2023/08/21 02:52:53;;;;;;;7.32;3.70;;;;;;;20.03;77.45;102107.97;5092351;28;20130;-65
2023/08/21 02:55:20;;;;;;;9.38;4.10;;;;;;;19.92;78.01;102103.50;5091910;28;20077;-66
2023/08/21 02:57:45;;;;;;;10.13;4.22;;;;;;;19.93;78.35;102102.50;5092538;28;20048;-65
2023/08/21 03:00:11;;;;;;;9.27;3.92;;;;;;;19.92;78.45;102107.03;5090917;28;20577;-65
2023/08/21 03:02:37;;;;;;;7.30;3.85;;;;;;;19.93;78.37;102113.28;5108052;28;20535;-65
2023/08/21 03:05:03;;;;;;;6.32;3.65;;;;;;;19.90;78.35;102111.72;5111175;28;20108;-66
2023/08/21 03:07:29;;;;;;;9.63;4.45;;;;;;;19.93;78.50;102108.75;5112455;28;20091;-66
2023/08/21 03:09:54;;;;;;;8.65;4.07;;;;;;;19.88;78.93;102111.00;5110419;28;20028;-65
2023/08/21 03:12:20;;;;;;;10.63;4.88;;;;;;;19.94;78.62;102109.59;5110211;27;20106;-65
2023/08/21 03:14:46;;;;;;;9.90;5.07;;;;;;;19.81;79.09;102101.66;5112188;27;20024;-65
2023/08/21 03:17:14;;;;;;;9.88;4.80;;;;;;;19.82;79.22;102119.56;5093817;27;20035;-65
2023/08/21 03:19:39;;;;;;;8.50;4.70;;;;;;;19.75;78.86;102118.38;5099955;27;20442;-65
2023/08/21 03:22:04;;;;;;;12.85;4.80;;;;;;;19.76;79.39;102120.06;5102347;28;20172;-65
2023/08/21 03:24:30;;;;;;;9.50;4.93;;;;;;;19.81;79.36;102114.31;5103175;28;20410;-65
2023/08/21 03:26:58;;;;;;;9.77;5.22;;;;;;;19.73;79.72;102120.31;5110439;28;20026;-66
2023/08/21 03:29:23;;;;;;;12.50;4.93;;;;;;;19.65;79.95;102117.41;5112056;28;20581;-65
2023/08/21 03:31:50;;;;;;;15.55;4.90;;;;;;;19.64;79.53;102119.19;5108751;28;20118;-65
2023/08/21 03:34:15;;;;;;;8.82;4.72;;;;;;;19.60;79.64;102125.00;5110727;28;20072;-66
2023/08/21 03:36:43;;;;;;;10.43;4.78;;;;;;;19.66;79.76;102119.97;5112036;28;20040;-65
2023/08/21 03:39:09;;;;;;;9.65;4.47;;;;;;;19.67;79.82;102126.22;5111711;28;20023;-66
2023/08/21 03:41:34;;;;;;;10.52;5.13;;;;;;;19.58;79.88;102118.84;5107040;28;20020;-65
2023/08/21 03:43:59;;;;;;;12.68;5.45;;;;;;;19.48;80.31;102114.19;5114357;28;20358;-66
2023/08/21 03:46:25;;;;;;;9.77;5.10;;;;;;;19.44;80.08;102114.56;5110331;28;20028;-66
2023/08/21 03:48:51;;;;;;;9.65;5.13;;;;;;;19.29;81.10;102100.47;5111809;28;20039;-66
2023/08/21 03:51:16;;;;;;;11.30;5.20;;;;;;;19.31;81.06;102109.28;5113761;28;20088;-66
2023/08/21 03:53:42;;;;;;;10.05;4.50;;;;;;;19.23;81.15;102109.91;5096786;28;20443;-65
2023/08/21 03:56:07;;;;;;;12.82;4.80;;;;;;;19.12;81.51;102118.00;5097472;28;20016;-66
2023/08/21 03:58:33;;;;;;;12.73;5.65;;;;;;;19.01;82.36;102113.44;5110594;28;20489;-65
2023/08/21 04:00:58;;;;;;;9.55;4.45;;;;;;;18.96;82.93;102112.94;5111541;28;20036;-65
2023/08/21 04:03:24;;;;;;;9.23;5.35;;;;;;;19.09;81.82;102112.84;5100030;28;20456;-66
2023/08/21 04:05:49;;;;;;;11.18;5.05;;;;;;;19.10;81.75;102101.09;5090019;28;20031;-65
2023/08/21 04:08:17;;;;;;;10.90;5.25;;;;;;;19.10;82.09;102111.00;5099319;28;20059;-66
2023/08/21 04:10:42;;;;;;;8.20;4.80;;;;;;;19.13;81.38;102117.03;5112174;28;20053;-66
2023/08/21 04:13:08;;;;;;;8.52;4.70;;;;;;;19.06;81.31;102115.81;5110757;27;20038;-66
2023/08/21 04:15:36;;;;;;;7.70;4.43;;;;;;;19.09;81.41;102109.28;5107619;27;20052;-66
2023/08/21 04:18:02;;;;;;;12.68;5.30;;;;;;;19.11;81.35;102129.75;5118793;27;20082;-65
2023/08/21 04:20:30;;;;;;;9.32;5.00;;;;;;;19.09;82.06;102129.03;5094586;28;20059;-65
2023/08/21 04:22:58;;;;;;;10.02;5.13;;;;;;;19.04;82.51;102126.69;5110225;28;20043;-66
2023/08/21 04:25:24;;;;;;;10.70;5.22;;;;;;;19.07;82.88;102141.78;5113408;28;20561;-66
2023/08/21 04:27:49;;;;;;;8.93;5.25;;;;;;;19.17;82.88;102137.38;5114473;28;20035;-66
2023/08/21 04:30:14;;;;;;;15.15;5.10;;;;;;;19.03;83.73;102135.78;5120917;27;20043;-65
2023/08/21 04:32:40;;;;;;;12.60;5.07;;;;;;;19.17;83.99;102144.59;5115627;27;20028;-66
2023/08/21 04:35:08;;;;;;;12.18;5.03;;;;;;;19.13;83.32;102133.19;5108633;28;20387;-66
2023/08/21 04:37:33;;;;;;;9.88;4.97;;;;;;;19.23;83.30;102141.41;5095015;28;20028;-66
2023/08/21 04:39:59;;;;;;;9.70;4.57;;;;;;;19.34;83.30;102141.44;5093106;28;20061;-66
2023/08/21 04:42:24;;;;;;;11.20;4.95;;;;;;;19.29;83.92;102140.94;5094838;28;20032;-66
2023/08/21 04:44:50;;;;;;;12.90;5.65;;;;;;;19.32;84.04;102142.53;5095150;28;20024;-65
2023/08/21 04:47:21;;;;;;;8.73;4.50;;;;;;;19.34;83.50;102154.06;5117490;27;20099;-65
2023/08/21 04:49:48;;;;;;;9.00;4.93;;;;;;;19.21;84.71;102140.69;5100173;28;20050;-65
2023/08/21 04:52:13;;;;;;;11.45;5.18;;;;;;;19.20;84.42;102153.31;5106129;28;20024;-66
2023/08/21 04:54:39;;;;;;;12.95;5.50;;;;;;;19.26;84.69;102149.25;5114472;28;20042;-66
2023/08/21 04:57:06;;;;;;;9.55;5.30;;;;;;;19.31;84.07;102148.91;5113061;27;20115;-65
2023/08/21 04:59:31;;;;;;;10.10;4.72;;;;;;;19.33;84.03;102146.97;5113304;27;20026;-65
2023/08/21 05:01:57;;;;;;;9.73;4.80;;;;;;;19.33;83.95;102149.66;5107821;28;20513;-66
2023/08/21 05:04:22;;;;;;;9.75;4.90;;;;;;;19.15;84.54;102152.84;5112285;28;20046;-65
2023/08/21 05:06:48;;;;;;;9.00;4.95;;;;;;;19.06;84.72;102156.25;5095869;28;20028;-66
2023/08/21 05:09:15;;;;;;;12.30;4.70;;;;;;;19.08;84.91;102143.47;5093696;28;20090;-65
2023/08/21 05:11:41;;;;;;;11.15;5.78;;;;;;;18.93;85.30;102152.78;5093804;28;20028;-65
2023/08/21 05:14:06;;;;;;;15.80;5.60;;;;;;;18.90;85.40;102147.63;5119998;27;20053;-65
2023/08/21 05:16:32;;;;;;;10.95;4.90;;;;;;;18.96;84.83;102153.38;5107597;27;20024;-65
2023/08/21 05:18:57;;;;;;;9.10;5.22;;;;;;;18.90;85.44;102159.25;5117570;27;20035;-65
2023/08/21 05:21:22;;;;;;;11.98;4.95;;;;;;;18.99;85.58;102157.69;5116349;27;20103;-65
2023/08/21 05:23:48;;;;;;;8.90;5.20;;;;;;;19.08;85.31;102166.91;5100245;27;20616;-65
2023/08/21 05:26:13;;;;;;;8.75;5.25;;;;;;;19.10;85.15;102162.25;5108474;27;20023;-65
2023/08/21 05:28:39;;;;;;;10.85;5.35;;;;;;;19.20;85.63;102172.19;5113681;27;20061;-65
2023/08/21 05:31:04;;;;;;;8.90;5.50;;;;;;;19.22;85.66;102177.47;5116463;27;20318;-65
2023/08/21 05:33:30;;;;;;;8.65;4.80;;;;;;;19.20;85.88;102161.41;5114609;27;20049;-65
2023/08/21 05:35:56;;;;;;;11.15;6.32;;;;;;;19.20;86.63;102174.88;5108305;28;20028;-65
2023/08/21 05:38:22;;;;;;;17.88;5.88;;;;;;;19.33;86.08;102179.34;5094309;28;20028;-65
2023/08/21 05:40:50;;;;;;;12.38;5.88;;;;;;;19.27;86.78;102173.44;5093427;28;20024;-65
2023/08/21 05:43:16;;;;;;;12.05;6.00;;;;;;;19.41;85.90;102172.34;5093624;28;20020;-65
2023/08/21 05:45:45;;;;;;;8.85;5.78;;;;;;;19.46;85.94;102175.53;5093314;28;20110;-65
2023/08/21 05:48:10;;;;;;;11.65;5.75;;;;;;;19.54;86.05;102179.47;5099869;28;20362;-65
2023/08/21 05:50:36;;;;;;;13.35;5.68;;;;;;;19.55;85.93;102179.31;5104988;28;20035;-65
2023/08/21 05:53:06;;;;;;;16.35;6.63;;;;;;;19.45;86.64;102173.81;5092223;28;20032;-65
2023/08/21 05:55:36;;;;;;;13.93;5.70;;;;;;;19.60;86.38;102176.28;5093478;28;20424;-65
2023/08/21 05:58:01;;;;;;;11.07;6.40;;;;;;;19.56;86.39;102166.69;5096747;27;20028;-65
2023/08/21 06:00:27;;;;;;;14.43;7.20;;;;;;;19.63;86.32;102179.59;5105468;27;20082;-65
2023/08/21 06:02:52;;;;;;;13.18;7.07;;;;;;;19.63;86.10;102170.63;5112178;27;20028;-65
2023/08/21 06:05:18;;;;;;;12.88;6.88;;;;;;;19.69;86.00;102179.13;5112133;28;20062;-65
2023/08/21 06:07:43;;;;;;;13.82;7.13;;;;;;;19.77;85.99;102180.34;5111728;28;20026;-65
2023/08/21 06:10:12;;;;;;;14.90;6.68;;;;;;;19.75;86.11;102183.16;5111980;28;20088;-65
2023/08/21 06:12:40;;;;;;;;;;;;;;;19.98;84.36;102189.41;5112505;27;20340;-66
2023/08/21 06:15:09;;;;;;;13.23;7.43;;;;;;;19.87;85.32;102192.97;5104609;27;20018;-65
2023/08/21 06:17:36;;;;;;;15.23;6.65;;;;;;;19.86;86.19;102195.81;5107032;27;20044;-65
2023/08/21 06:20:02;;;;;;;14.57;7.00;;;;;;;19.86;86.21;102198.50;5094484;28;20040;-66
2023/08/21 06:22:28;;;;;;;15.23;7.28;;;;;;;19.80;86.09;102177.41;5106180;27;20034;-66
2023/08/21 06:24:53;;;;;;;11.68;6.88;;;;;;;20.03;85.47;102194.41;5092505;28;20016;-65
2023/08/21 06:27:19;;;;;;;13.43;7.60;;;;;;;20.10;85.12;102204.59;5103938;27;20018;-66
2023/08/21 06:29:44;;;;;;;10.48;7.07;;;;;;;20.00;85.91;102205.47;5106833;28;20043;-66
2023/08/21 06:32:10;;;;;;;15.30;8.05;;;;;;;20.10;84.94;102206.44;5113337;28;20023;-66
2023/08/21 06:34:35;;;;;;;13.38;7.10;;;;;;;20.20;83.99;102193.88;5111741;28;20023;-65
2023/08/21 06:37:00;;;;;;;18.30;7.80;;;;;;;20.24;84.58;102194.53;5113064;28;20030;-66
2023/08/21 06:39:28;;;;;;;12.93;7.22;;;;;;;20.27;84.80;102205.06;5113046;27;20019;-66
2023/08/21 06:41:54;;;;;;;13.57;7.68;;;;;;;20.33;84.97;102197.31;5112948;28;20030;-65
2023/08/21 06:44:23;;;;;;;18.20;8.10;;;;;;;20.41;84.39;102202.06;5112626;28;20016;-65
2023/08/21 06:46:48;;;;;;;;;;;;;;;20.62;82.97;102199.47;5113534;28;20355;-65
2023/08/21 06:49:14;;;;;;;11.13;6.43;;;;;;;20.54;83.66;102202.78;5113165;27;19919;-65
2023/08/21 06:51:39;;;;;;;13.88;7.00;;;;;;;20.53;82.50;102208.31;5094132;28;20788;-65
2023/08/21 06:54:04;;;;;;;12.70;7.22;;;;;;;20.59;82.22;102195.16;5101529;27;20435;-65
2023/08/21 06:56:30;;;;;;;16.88;7.38;;;;;;;20.64;81.37;102206.44;5110277;28;20039;-65
2023/08/21 06:58:55;;;;;;;14.00;7.05;;;;;;;20.68;80.34;102189.94;5109881;28;20027;-65
2023/08/21 07:01:21;;;;;;;15.38;7.72;;;;;;;20.64;80.10;102202.88;5104712;27;20371;-65
2023/08/21 07:03:46;;;;;;;13.82;6.90;;;;;;;20.74;81.93;102201.13;5105451;28;20123;-65
2023/08/21 07:06:12;;;;;;;11.90;7.28;;;;;;;20.71;81.87;102204.09;5112133;28;20026;-66
2023/08/21 07:08:40;;;;;;;12.48;7.15;;;;;;;20.75;81.58;102204.69;5109975;28;20028;-65
2023/08/21 07:11:05;;;;;;;14.88;7.75;;;;;;;20.71;81.75;102203.22;5106049;28;20028;-65
2023/08/21 07:13:31;;;;;;;13.85;7.55;;;;;;;20.82;81.55;102205.84;5110888;28;20024;-65
2023/08/21 07:15:58;;;;;;;16.85;6.78;;;;;;;20.83;80.07;102204.91;5109392;27;20044;-65
2023/08/21 07:18:27;;;;;;;16.13;6.90;;;;;;;20.86;81.44;102212.75;5107763;28;20058;-65
2023/08/21 07:20:55;;;;;;;10.63;5.68;;;;;;;20.92;80.98;102214.91;5108142;28;20028;-65
2023/08/21 07:23:20;;;;;;;11.27;6.35;;;;;;;20.89;81.62;102212.47;5098083;28;20115;-65
2023/08/21 07:25:46;;;;;;;13.07;6.55;;;;;;;20.91;80.15;102205.06;5109758;27;20658;-65
2023/08/21 07:28:11;;;;;;;17.00;7.13;;;;;;;21.04;78.43;102207.59;5110198;28;20035;-65
2023/08/21 07:30:38;;;;;;;11.13;6.40;;;;;;;21.16;76.11;102208.41;5109989;27;20371;-65
2023/08/21 07:33:05;;;;;;;10.02;6.50;;;;;;;21.19;75.76;102221.66;5115020;27;20039;-65
2023/08/21 07:35:30;;;;;;;12.88;6.35;;;;;;;21.26;76.28;102212.00;5104092;28;20042;-65
2023/08/21 07:37:58;;;;;;;13.43;5.97;;;;;;;21.36;74.29;102215.69;5106242;28;20027;-65
2023/08/21 07:40:24;;;;;;;14.93;5.70;;;;;;;21.43;73.56;102214.13;5108893;28;20027;-65
2023/08/21 07:42:49;;;;;;;12.48;5.80;;;;;;;21.51;73.58;102216.19;5108309;28;20112;-65
2023/08/21 07:45:14;;;;;;;11.27;5.45;;;;;;;21.46;75.82;102213.88;5102183;28;20023;-65
2023/08/21 07:47:40;;;;;;;11.48;5.65;;;;;;;21.59;75.87;102215.50;5114118;28;20028;-65
2023/08/21 07:50:08;;;;;;;14.85;4.30;;;;;;;21.70;72.17;102218.97;5113176;28;20398;-65
2023/08/21 07:52:35;;;;;;;11.07;4.82;;;;;;;21.69;70.21;102221.81;5114938;28;20034;-65
2023/08/21 07:55:01;;;;;;;11.30;4.72;;;;;;;21.80;70.36;102229.84;5113358;28;20054;-65
2023/08/21 07:57:29;;;;;;;10.70;4.97;;;;;;;21.73;69.83;102215.97;5113574;28;20041;-65
2023/08/21 07:59:54;;;;;;;11.40;5.20;;;;;;;21.81;68.85;102228.00;5115486;28;20027;-66
2023/08/21 08:02:20;;;;;;;12.20;5.35;;;;;;;21.81;71.00;102228.00;5112239;28;20480;-65
2023/08/21 08:04:48;;;;;;;11.52;4.30;;;;;;;21.84;71.12;102231.28;5114166;28;20080;-65
2023/08/21 08:07:14;;;;;;;11.98;5.10;;;;;;;21.87;69.47;102225.59;5114239;28;20099;-65
2023/08/21 08:09:39;;;;;;;9.63;5.32;;;;;;;22.04;68.85;102226.81;5115469;28;20730;-65
2023/08/21 08:12:05;;;;;;;10.70;4.47;;;;;;;22.04;69.99;102221.38;5112037;28;20462;-65
2023/08/21 08:14:31;;;;;;;6.95;4.18;;;;;;;22.20;65.74;102234.41;5115284;28;20023;-65
2023/08/21 08:16:56;;;;;;;10.90;4.22;;;;;;;22.21;66.83;102236.16;5115521;28;20481;-65
2023/08/21 08:19:22;;;;;;;12.73;4.10;;;;;;;22.31;67.42;102223.47;5107121;28;20051;-65
2023/08/21 08:21:47;;;;;;;11.57;4.85;;;;;;;22.36;69.00;102233.91;5095089;28;20090;-65
2023/08/21 08:24:13;;;;;;;10.88;4.18;;;;;;;22.53;67.02;102232.34;5094556;28;20477;-65
2023/08/21 08:26:38;;;;;;;10.45;4.63;;;;;;;22.63;65.51;102233.22;5093735;28;20020;-65
2023/08/21 08:29:05;;;;;;;9.88;4.07;;;;;;;22.66;65.94;102228.34;5095571;28;20077;-65
2023/08/21 08:31:30;;;;;;;11.18;4.15;;;;;;;22.75;64.41;102237.50;5094906;28;20368;-65
2023/08/21 08:33:56;;;;;;;10.57;4.22;;;;;;;22.86;65.06;102228.38;5076494;28;20463;-65
2023/08/21 08:36:22;;;;;;;8.52;3.50;;;;;;;22.82;64.57;102222.34;5094620;28;20032;-65
2023/08/21 08:38:47;;;;;;;8.50;3.50;;;;;;;22.92;64.07;102224.22;5094365;28;20103;-66
2023/08/21 08:41:30;;;;;;;12.73;4.03;;;;;;;22.99;62.99;102233.53;5077398;28;20081;-66
2023/08/21 08:44:00;;;;;;;9.70;3.47;;;;;;;23.03;61.11;102233.09;5093331;28;20035;-66
2023/08/21 08:46:31;;;;;;;8.65;3.50;;;;;;;23.12;61.03;102229.53;5093355;28;20459;-65
2023/08/21 08:48:57;;;;;;;10.73;3.78;;;;;;;23.03;61.28;102232.22;5098634;28;20036;-66
2023/08/21 08:51:24;;;;;;;10.40;4.00;;;;;;;23.13;62.48;102241.22;5094519;28;20036;-66
2023/08/21 08:53:50;;;;;;;8.23;4.07;;;;;;;23.09;64.15;102234.38;5098612;28;20024;-66
2023/08/21 08:56:17;;;;;;;10.40;4.85;;;;;;;23.01;64.47;102220.69;5113516;28;20042;-65
2023/08/21 08:58:43;;;;;;;8.32;3.88;;;;;;;23.07;64.13;102244.53;5113246;28;20028;-65
2023/08/21 09:01:12;;;;;;;9.93;3.80;;;;;;;23.03;63.55;102237.66;5113555;28;20024;-66
2023/08/21 09:03:38;;;;;;;4.25;2.38;;;;;;;22.94;61.35;102238.50;5111442;28;20024;-65
2023/08/21 09:06:05;;;;;;;7.03;3.08;;;;;;;22.92;61.39;102241.38;5112693;28;20026;-65
2023/08/21 09:08:33;;;;;;;9.15;2.88;;;;;;;22.90;63.35;102230.63;5114018;28;20545;-65
2023/08/21 09:11:04;;;;;;;8.77;2.80;;;;;;;22.94;60.82;102230.34;5096447;28;20063;-66
2023/08/21 09:13:31;;;;;;;8.60;2.45;;;;;;;22.92;59.94;102229.66;5112943;28;20031;-65
2023/08/21 09:15:59;;;;;;;8.45;2.40;;;;;;;22.96;62.31;102229.25;5112497;27;20471;-65
2023/08/21 09:18:24;;;;;;;7.60;3.07;;;;;;;23.06;61.79;102234.66;5113036;28;20478;-65
2023/08/21 09:20:50;;;;;;;6.80;2.63;;;;;;;23.00;61.63;102227.09;5112966;28;20073;-65
2023/08/21 09:23:17;;;;;;;8.88;3.08;;;;;;;22.92;62.64;102225.09;5113879;27;20018;-65
2023/08/21 09:25:46;;;;;;;11.05;2.90;;;;;;;22.87;59.86;102222.78;5095323;28;20027;-65
2023/08/21 09:28:13;;;;;;;8.20;2.42;;;;;;;22.92;63.13;102216.09;5093573;28;20028;-65
2023/08/21 09:30:45;;;;;;;9.75;2.55;;;;;;;23.16;61.06;102238.22;5093905;28;20028;-65
2023/08/21 09:33:11;;;;;;;8.82;2.78;;;;;;;23.24;61.21;102230.22;5092388;28;20069;-65
2023/08/21 09:35:36;;;;;;;7.80;2.90;;;;;;;23.43;58.47;102221.16;5099174;28;20024;-66
2023/08/21 09:38:02;;;;;;;10.35;3.17;;;;;;;23.46;60.36;102230.88;5095610;28;20035;-65
2023/08/21 09:40:27;;;;;;;9.48;2.85;;;;;;;23.58;59.41;102224.25;5104761;28;20425;-65
2023/08/21 09:42:54;;;;;;;8.50;2.63;;;;;;;23.72;59.74;102233.81;5092293;28;20024;-66
2023/08/21 09:45:24;;;;;;;9.40;2.92;;;;;;;23.72;60.79;102221.09;5093122;28;20081;-65
2023/08/21 09:47:53;;;;;;;8.15;2.85;;;;;;;23.77;61.44;102210.63;5092147;28;20477;-66
2023/08/21 09:50:19;;;;;;;11.77;2.92;;;;;;;23.83;59.54;102225.47;5108174;28;20066;-65
2023/08/21 09:52:45;;;;;;;6.65;2.85;;;;;;;23.91;60.67;102225.56;5093214;28;20439;-66
2023/08/21 09:55:13;;;;;;;12.07;2.70;;;;;;;23.96;59.48;102225.97;5091903;28;20024;-66
2023/08/21 09:57:39;;;;;;;10.15;3.13;;;;;;;24.10;59.38;102213.75;5108970;27;20061;-66
2023/08/21 10:00:15;;;;;;;7.93;2.42;;;;;;;24.12;58.00;102216.28;5111465;27;20031;-65
2023/08/21 10:02:47;;;;;;;6.43;2.42;;;;;;;24.18;55.92;102216.56;5113435;28;20414;-66
2023/08/21 10:05:14;;;;;;;12.55;2.80;;;;;;;24.37;58.64;102220.16;5111975;28;20023;-66
2023/08/21 10:07:42;;;;;;;8.20;3.25;;;;;;;24.34;57.07;102220.47;5111492;27;20098;-66
2023/08/21 10:10:09;;;;;;;26.88;5.82;;;;;;;24.47;56.89;102218.25;5109503;28;20076;-65
2023/08/21 10:12:36;;;;;;;47.38;10.65;;;;;;;24.44;56.49;102197.66;5106462;27;20028;-66
2023/08/21 10:15:04;;;;;;;27.35;5.32;;;;;;;24.60;58.44;102202.41;5103826;27;20359;-66
2023/08/21 10:17:31;;;;;;;11.20;3.00;;;;;;;24.60;56.64;102209.72;5104870;27;20106;-65
2023/08/21 10:20:03;;;;;;;15.73;3.47;;;;;;;24.52;54.97;102199.59;5102921;28;20277;-65
2023/08/21 10:22:46;;;;;;;8.25;2.50;;;;;;;24.63;55.53;102199.38;5112714;28;20028;-66
2023/08/21 10:25:16;;;;;;;15.00;3.53;;;;;;;24.65;55.01;102200.06;5094414;27;20028;-66
2023/08/21 10:27:42;;;;;;;9.40;2.97;;;;;;;24.73;55.45;102203.88;5092785;28;20375;-65
2023/08/21 10:30:15;;;;;;;7.88;2.03;;;;;;;24.77;55.26;102200.69;5097354;28;20039;-65
2023/08/21 10:32:46;;;;;;;15.20;4.00;;;;;;;24.89;54.53;102204.88;5094905;28;20053;-65
2023/08/21 10:35:22;;;;;;;7.65;2.15;;;;;;;24.95;56.94;102200.66;5092539;28;20035;-65
2023/08/21 10:38:16;;;;;;;8.40;2.60;;;;;;;25.17;55.91;102201.19;5100637;27;20060;-65
2023/08/21 10:41:05;;;;;;;6.22;2.38;;;;;;;25.21;55.68;102202.56;5091182;28;20032;-65
2023/08/21 10:43:41;;;;;;;7.15;2.13;;;;;;;25.14;54.91;102197.75;5092141;28;20197;-65
2023/08/21 10:46:10;;;;;;;5.20;1.92;;;;;;;25.20;55.26;102190.81;5091511;28;20364;-65
2023/08/21 10:48:36;;;;;;;4.40;1.90;;;;;;;25.26;53.67;102197.50;5111537;27;20024;-65
2023/08/21 10:51:07;;;;;;;6.18;2.22;;;;;;;25.31;55.43;102190.56;5099304;27;20028;-65
2023/08/21 10:53:33;;;;;;;10.32;1.75;;;;;;;25.38;54.63;102204.38;5113296;27;20031;-65
2023/08/21 10:56:03;;;;;;;13.43;2.83;;;;;;;25.36;54.58;102209.16;5112420;28;20099;-65
2023/08/21 10:58:43;;;;;;;7.47;2.33;;;;;;;25.07;52.96;102203.97;5112808;28;20081;-65
2023/08/21 11:01:09;;;;;;;29.88;3.65;;;;;;;24.96;54.72;102210.53;5094699;28;20023;-65
2023/08/21 11:03:38;;;;;;;6.43;2.10;;;;;;;24.89;54.80;102210.31;5112469;27;20027;-65
2023/08/21 11:06:08;;;;;;;7.28;1.95;;;;;;;25.15;55.80;102207.66;5110459;27;20370;-65
2023/08/21 11:08:34;;;;;;;9.15;2.60;;;;;;;25.19;53.13;102208.19;5090733;28;20089;-65
2023/08/21 11:11:02;;;;;;;7.47;2.20;;;;;;;25.12;54.13;102207.09;5093151;28;20432;-65
2023/08/21 11:13:27;;;;;;;7.70;2.55;;;;;;;24.99;51.40;102199.31;5094065;28;20024;-67
2023/08/21 11:16:04;;;;;;;7.65;2.60;;;;;;;24.94;53.47;102209.81;5115206;27;20024;-68
2023/08/21 11:18:38;;;;;;;5.18;2.50;;;;;;;24.85;52.96;102200.72;5100096;28;20028;-67
2023/08/21 11:21:10;;;;;;;9.48;2.85;;;;;;;24.76;52.99;102189.94;5095688;28;20031;-67